Time;durP1;ratioP1;P1;durP2;ratioP2;P2;SDS_P1;SDS_P2;PMS_P1;PMS_P2;Temp;Humidity;BMP_temperature;BMP_pressure;BME280_temperature;BME280_humidity;BME280_pressure;Samples;Min_cycle;Max_cycle;Signal;HPM_P1;HPM_P2
2023/10/25 00:01:07;;;;;;;15.50;5.17;;;16.10;92.00;;;16.42;56.61;94529.28;5078485;28;20470;-59
2023/10/25 00:03:36;;;;;;;26.43;6.50;;;16.10;92.00;;;16.38;56.75;94528.00;5081034;28;20490;-61
2023/10/25 00:06:03;;;;;;;18.13;5.90;;;16.10;92.00;;;16.36;56.59;94519.41;5078477;28;20470;-61
2023/10/25 00:08:32;;;;;;;18.80;6.33;;;16.00;91.90;;;16.33;56.86;94524.22;5073243;28;20466;-62
2023/10/25 00:11:04;;;;;;;20.73;5.50;;;16.00;91.90;;;16.29;56.75;94503.34;5069862;28;20518;-60
2023/10/25 00:13:31;;;;;;;15.10;5.80;;;16.00;91.90;;;16.29;56.67;94518.47;5080085;28;20572;-60
2023/10/25 00:15:58;;;;;;;18.57;5.87;;;16.00;91.90;;;16.28;56.89;94500.88;5076210;28;20942;-59
2023/10/25 00:18:25;;;;;;;20.43;6.60;;;16.00;92.00;;;16.27;57.03;94497.44;5076947;28;20956;-61
2023/10/25 00:20:54;;;;;;;22.47;5.57;;;16.00;92.20;;;16.29;56.76;94521.13;5077584;28;20447;-61
2023/10/25 00:23:21;;;;;;;10.87;5.37;;;15.90;92.10;;;16.25;56.95;94519.84;5073308;28;20483;-59
2023/10/25 00:25:49;;;;;;;22.27;6.37;;;15.90;92.20;;;16.24;56.71;94504.94;5074086;28;20830;-60
2023/10/25 00:28:17;;;;;;;18.23;4.90;;;15.90;92.20;;;16.25;57.14;94509.22;5074735;28;20842;-61
2023/10/25 00:30:45;;;;;;;22.60;6.80;;;16.00;92.40;;;16.25;56.94;94511.88;5072185;28;20451;-59
2023/10/25 00:33:12;;;;;;;15.20;4.70;;;15.90;92.20;;;16.24;56.86;94486.38;5079759;28;20968;-59
2023/10/25 00:35:39;;;;;;;23.27;6.43;;;15.90;92.10;;;16.24;56.85;94491.66;5072072;28;20831;-60
2023/10/25 00:38:08;;;;;;;15.30;4.93;;;15.90;92.10;;;16.24;56.93;94489.03;5075823;28;20446;-59
2023/10/25 00:40:37;;;;;;;21.40;6.30;;;15.90;92.30;;;16.26;57.01;94492.31;5073461;28;20451;-61
2023/10/25 00:43:15;;;;;;;16.17;5.00;;;15.90;92.20;;;16.24;56.88;94486.38;5076092;28;20508;-60
2023/10/25 00:46:02;;;;;;;14.17;4.70;;;15.90;92.20;;;16.22;57.48;94491.84;5073510;28;20987;-59
2023/10/25 00:48:30;;;;;;;20.00;6.10;;;15.90;92.30;;;16.22;57.01;94506.94;5074641;28;20814;-60
2023/10/25 00:50:57;;;;;;;21.83;6.03;;;15.90;92.30;;;16.21;57.23;94531.84;5076765;28;20454;-60
2023/10/25 00:53:26;;;;;;;15.90;5.27;;;15.90;92.40;;;16.19;57.01;94523.22;5077990;28;20479;-61
2023/10/25 00:55:54;;;;;;;34.23;6.53;;;15.90;92.40;;;16.16;57.08;94503.19;5077502;28;20516;-59
2023/10/25 00:58:21;;;;;;;17.27;4.93;;;15.90;92.50;;;16.16;57.01;94523.59;5078656;28;20974;-60
2023/10/25 01:00:48;;;;;;;14.53;5.30;;;15.90;92.40;;;16.10;57.10;94470.25;5075558;28;20945;-60
2023/10/25 01:03:15;;;;;;;25.27;4.93;;;15.80;92.30;;;16.04;57.10;94492.22;5073271;28;20454;-60
2023/10/25 01:05:44;;;;;;;19.33;5.50;;;15.80;92.40;;;16.03;57.25;94477.28;5074332;28;20483;-60
2023/10/25 01:08:11;;;;;;;18.80;6.07;;;15.80;92.40;;;16.04;57.23;94478.13;5075142;28;20538;-59
2023/10/25 01:10:40;;;;;;;14.50;5.07;;;15.80;92.60;;;16.05;57.11;94475.31;5074338;28;20965;-61
2023/10/25 01:13:07;;;;;;;18.13;5.00;;;15.80;92.60;;;16.07;57.63;94483.88;5073685;28;20542;-60
2023/10/25 01:15:34;;;;;;;18.03;4.93;;;15.80;92.90;;;16.11;57.25;94481.69;5075575;28;20450;-59
2023/10/25 01:18:02;;;;;;;26.37;4.70;;;15.80;92.60;;;16.12;57.02;94473.53;5074481;28;20474;-61
2023/10/25 01:20:29;;;;;;;16.67;4.70;;;15.80;92.50;;;16.15;57.40;94450.31;5074203;28;20447;-60
2023/10/25 01:22:57;;;;;;;21.17;4.97;;;15.80;92.60;;;16.17;57.15;94462.38;5077966;28;20474;-59
2023/10/25 01:25:25;;;;;;;21.53;5.30;;;15.90;92.60;;;16.19;56.90;94472.81;5080476;28;20449;-59
2023/10/25 01:27:52;;;;;;;18.90;4.90;;;15.90;92.50;;;16.22;57.07;94464.47;5079559;28;20554;-59
2023/10/25 01:30:20;;;;;;;25.83;5.10;;;15.90;92.60;;;16.26;57.08;94457.81;5081691;28;20526;-60
2023/10/25 01:32:47;;;;;;;16.70;4.90;;;15.90;92.60;;;16.30;57.10;94456.44;5077068;28;20496;-60
2023/10/25 01:35:14;;;;;;;11.47;4.20;;;15.90;92.60;;;16.34;57.09;94463.00;5079960;28;20486;-59
2023/10/25 01:37:42;;;;;;;25.33;7.43;;;16.00;92.60;;;16.37;57.14;94467.13;5079395;28;21013;-59
2023/10/25 01:40:11;;;;;;;18.47;4.33;;;16.00;92.60;;;16.40;56.98;94477.38;5076644;28;20451;-59
2023/10/25 01:42:38;;;;;;;23.87;5.10;;;16.10;92.60;;;16.40;56.92;94483.50;5081390;28;20535;-60
2023/10/25 01:45:07;;;;;;;24.47;4.53;;;16.10;92.60;;;16.41;56.72;94501.06;5079224;28;20453;-61
2023/10/25 01:47:34;;;;;;;23.10;4.43;;;16.10;92.50;;;16.41;56.89;94485.16;5083668;28;20973;-59
2023/10/25 01:50:02;;;;;;;27.70;5.47;;;16.10;92.50;;;16.42;56.81;94492.13;5079233;28;20447;-61
2023/10/25 01:52:30;;;;;;;10.00;5.37;;;16.10;92.50;;;16.42;56.93;94496.56;5075683;28;20473;-60
2023/10/25 01:54:57;;;;;;;12.17;4.37;;;16.10;92.60;;;16.42;57.06;94497.41;5077286;28;20490;-59
2023/10/25 01:57:26;;;;;;;30.13;5.40;;;16.10;92.60;;;16.42;57.17;94497.41;5075283;28;20505;-60
2023/10/25 01:59:53;;;;;;;14.53;5.70;;;16.10;92.70;;;16.42;57.13;94502.72;5074733;28;20985;-60
2023/10/25 02:02:20;;;;;;;14.37;3.97;;;16.10;92.70;;;16.42;57.14;94492.13;5077775;28;20482;-60
2023/10/25 02:04:48;;;;;;;15.63;5.00;;;16.10;92.80;;;16.42;57.22;94500.06;5078404;28;20467;-60
2023/10/25 02:07:15;;;;;;;19.07;6.17;;;16.10;92.80;;;16.41;57.25;94490.47;5074844;28;20467;-59
2023/10/25 02:09:43;;;;;;;16.40;5.53;;;16.10;92.70;;;16.40;57.22;94493.28;5079773;28;20474;-59
2023/10/25 02:12:10;;;;;;;24.37;6.30;;;16.10;92.80;;;16.37;57.19;94491.00;5076656;28;20528;-59
2023/10/25 02:14:39;;;;;;;22.43;6.43;;;16.10;92.90;;;16.35;57.08;94501.81;5079801;28;20929;-60
2023/10/25 02:17:06;;;;;;;19.73;7.10;;;16.10;92.80;;;16.32;57.20;94470.34;5081178;28;20527;-59
2023/10/25 02:19:33;;;;;;;19.60;6.20;;;16.00;92.80;;;16.29;57.50;94471.50;5076129;28;20980;-60
2023/10/25 02:22:01;;;;;;;19.00;5.67;;;16.00;92.90;;;16.29;57.43;94460.09;5082511;28;20474;-60
2023/10/25 02:24:28;;;;;;;18.33;5.10;;;16.00;93.00;;;16.25;57.35;94448.19;5075059;28;20461;-59
2023/10/25 02:26:56;;;;;;;14.53;5.30;;;16.00;93.00;;;16.25;57.61;94437.56;5083989;28;20471;-58
2023/10/25 02:29:24;;;;;;;30.80;5.37;;;15.90;93.00;;;16.21;57.45;94429.16;5080505;28;20443;-59
2023/10/25 02:31:53;;;;;;;19.73;5.77;;;15.90;92.90;;;16.18;57.72;94434.03;5081938;28;20587;-60
2023/10/25 02:34:20;;;;;;;17.40;5.77;;;15.90;93.20;;;16.16;57.60;94422.75;5079973;28;20490;-60
2023/10/25 02:36:48;;;;;;;13.43;4.40;;;15.90;93.10;;;16.12;57.64;94401.91;5081810;28;21019;-59
2023/10/25 02:39:17;;;;;;;15.03;5.07;;;15.80;93.20;;;16.11;57.86;94394.97;5081453;28;20503;-60
2023/10/25 02:41:44;;;;;;;17.90;5.43;;;15.80;93.40;;;16.13;58.13;94381.53;5081595;28;20481;-60
2023/10/25 02:44:12;;;;;;;17.40;5.30;;;15.80;93.40;;;16.12;58.03;94385.19;5081097;28;20445;-61
2023/10/25 02:46:39;;;;;;;14.13;4.60;;;15.80;93.30;;;16.11;58.08;94373.75;5077261;28;20491;-62
2023/10/25 02:49:08;;;;;;;10.07;4.73;;;15.80;93.60;;;16.12;58.32;94382.53;5080481;28;20465;-60
2023/10/25 02:51:36;;;;;;;20.83;4.40;;;15.80;93.60;;;16.13;58.02;94390.28;5080434;28;20526;-60
2023/10/25 02:54:04;;;;;;;34.83;6.73;;;15.90;93.50;;;16.17;57.87;94380.13;5080096;28;21103;-59
2023/10/25 02:56:31;;;;;;;22.23;5.73;;;15.90;93.60;;;16.23;57.88;94392.66;5080870;28;20554;-59
2023/10/25 02:58:59;;;;;;;23.30;5.50;;;15.90;93.50;;;16.28;57.51;94410.66;5080665;28;20460;-59
2023/10/25 03:01:26;;;;;;;13.13;5.20;;;16.00;93.40;;;16.33;57.69;94391.53;5078412;28;20486;-60
2023/10/25 03:03:54;;;;;;;17.83;4.60;;;16.00;93.50;;;16.36;57.37;94385.84;5076311;28;20451;-60
2023/10/25 03:06:22;;;;;;;10.53;4.13;;;16.00;93.30;;;16.42;57.70;94393.91;5079604;28;20475;-60
2023/10/25 03:08:50;;;;;;;29.10;6.57;;;16.10;93.40;;;16.46;57.47;94389.03;5078796;28;20826;-60
2023/10/25 03:11:17;;;;;;;20.50;6.07;;;16.10;93.40;;;16.45;57.42;94377.59;5073420;28;20475;-59
2023/10/25 03:13:45;;;;;;;14.63;6.23;;;16.20;93.30;;;16.44;57.62;94375.13;5073821;28;20462;-60
2023/10/25 03:16:13;;;;;;;15.03;6.20;;;16.10;93.30;;;16.39;57.20;94410.19;5073465;28;20487;-60
2023/10/25 03:18:40;;;;;;;31.20;6.50;;;16.10;93.10;;;16.36;57.69;94407.06;5075667;28;20509;-62
2023/10/25 03:21:08;;;;;;;20.47;7.73;;;16.00;93.40;;;16.32;57.69;94388.06;5077153;28;20471;-60
2023/10/25 03:23:36;;;;;;;22.67;6.90;;;16.00;93.30;;;16.27;57.54;94393.94;5081235;28;20450;-60
2023/10/25 03:26:05;;;;;;;24.40;6.83;;;16.00;93.10;;;16.19;57.51;94396.69;5076975;28;20542;-60
2023/10/25 03:28:32;;;;;;;31.63;8.23;;;15.90;93.10;;;16.09;57.85;94367.78;5076246;28;20527;-60
2023/10/25 03:31:04;;;;;;;17.03;6.37;;;15.80;93.30;;;16.02;58.15;94369.56;5075194;28;20458;-60
2023/10/25 03:33:32;;;;;;;20.50;6.80;;;15.80;93.70;;;16.00;58.51;94371.56;5076116;28;20846;-59
2023/10/25 03:36:00;;;;;;;29.10;7.80;;;15.70;93.90;;;15.97;58.40;94398.44;5081566;28;21042;-60
2023/10/25 03:38:27;;;;;;;24.70;6.90;;;15.70;93.60;;;15.90;58.57;94382.47;5078266;28;20459;-61
2023/10/25 03:41:03;;;;;;;26.00;6.30;;;15.60;93.90;;;15.90;58.26;94376.34;5079481;28;20459;-60
2023/10/25 03:43:31;;;;;;;29.43;7.57;;;15.60;93.80;;;15.88;58.51;94378.34;5079697;28;20521;-60
2023/10/25 03:46:03;;;;;;;24.87;8.27;;;15.60;93.90;;;15.89;58.58;94380.81;5076413;28;20587;-61
2023/10/25 03:48:31;;;;;;;21.60;7.53;;;15.60;94.10;;;15.92;58.33;94393.69;5077877;28;20471;-60
2023/10/25 03:50:58;;;;;;;20.47;6.67;;;15.60;94.10;;;15.93;58.51;94389.22;5076628;28;20476;-59
2023/10/25 03:53:25;;;;;;;26.20;7.90;;;15.60;94.00;;;15.92;58.33;94379.63;5078674;28;20450;-60
2023/10/25 03:55:56;;;;;;;20.80;7.30;;;15.60;93.80;;;15.90;58.23;94363.09;5072809;28;20582;-60
2023/10/25 03:58:25;;;;;;;25.43;7.97;;;15.60;93.80;;;15.88;58.41;94365.06;5073387;28;20461;-60
2023/10/25 04:01:00;;;;;;;28.47;8.20;;;15.60;93.90;;;15.83;58.36;94351.56;5074055;28;20474;-59
2023/10/25 04:03:28;;;;;;;34.23;8.87;;;15.50;93.90;;;15.80;58.56;94367.84;5074213;28;20530;-60
2023/10/25 04:05:55;;;;;;;25.33;8.43;;;15.50;94.20;;;15.76;58.48;94375.31;5078343;28;20455;-60
2023/10/25 04:08:23;;;;;;;26.73;8.13;;;15.50;94.10;;;15.73;58.49;94371.19;5079944;28;20446;-61
2023/10/25 04:10:51;;;;;;;32.23;8.70;;;15.50;94.10;;;15.70;58.67;94376.06;5078853;28;20867;-60
2023/10/25 04:13:19;;;;;;;21.00;6.80;;;15.40;94.20;;;15.65;58.55;94368.66;5073162;28;21027;-60
2023/10/25 04:15:56;;;;;;;21.90;8.23;;;15.40;94.10;;;15.59;58.95;94372.84;5078720;28;21033;-60
2023/10/25 04:18:24;;;;;;;23.73;8.40;;;15.30;94.30;;;15.55;59.23;94366.28;5078134;28;20439;-60
2023/10/25 04:20:51;;;;;;;21.60;7.70;;;15.30;94.50;;;15.50;59.05;94373.13;5077471;28;20498;-59
2023/10/25 04:23:19;;;;;;;23.80;7.50;;;15.30;94.60;;;15.49;59.27;94368.81;5077733;28;20459;-61
2023/10/25 04:25:46;;;;;;;25.13;6.93;;;15.30;94.70;;;15.51;59.21;94361.53;5081497;28;20454;-60
2023/10/25 04:28:14;;;;;;;29.23;7.90;;;15.20;94.90;;;15.50;59.08;94357.22;5077731;28;20537;-60
2023/10/25 04:30:41;;;;;;;30.53;8.30;;;15.20;94.80;;;15.46;59.12;94342.69;5080657;28;20446;-61
2023/10/25 04:33:10;;;;;;;28.33;8.00;;;15.20;94.60;;;15.41;59.22;94356.47;5078949;28;20931;-61
2023/10/25 04:35:37;;;;;;;28.13;7.30;;;15.10;94.80;;;15.37;59.53;94342.78;5075363;28;21025;-60
2023/10/25 04:38:05;;;;;;;24.27;6.97;;;15.10;95.10;;;15.37;59.71;94331.38;5079329;28;20477;-60
2023/10/25 04:40:32;;;;;;;33.07;8.97;;;15.10;95.20;;;15.37;60.02;94331.38;5072409;28;21025;-61
2023/10/25 04:43:00;;;;;;;25.83;8.10;;;15.10;95.50;;;15.39;59.86;94329.34;5076246;28;20558;-61
2023/10/25 04:45:28;;;;;;;26.73;9.00;;;15.10;95.50;;;15.39;60.00;94314.25;5072967;28;20451;-59
2023/10/25 04:47:56;;;;;;;32.27;9.33;;;15.10;95.70;;;15.41;59.81;94320.22;5077931;28;20565;-60
2023/10/25 04:50:25;;;;;;;32.73;8.07;;;15.10;95.70;;;15.44;60.21;94323.50;5078204;28;20445;-61
2023/10/25 04:52:52;;;;;;;27.57;7.90;;;15.20;95.90;;;15.49;59.92;94326.41;5076778;28;20469;-59
2023/10/25 04:55:21;;;;;;;26.20;8.27;;;15.20;95.70;;;15.52;59.99;94328.69;5079269;28;20551;-60
2023/10/25 04:57:48;;;;;;;18.30;7.07;;;15.20;95.80;;;15.52;60.16;94321.59;5083226;28;20538;-60
2023/10/25 05:00:15;;;;;;;20.17;8.00;;;15.20;95.80;;;15.55;60.04;94299.16;5079296;28;20450;-60
2023/10/25 05:02:43;;;;;;;28.43;8.80;;;15.30;95.90;;;15.58;59.99;94272.28;5076127;28;20462;-60
2023/10/25 05:05:10;;;;;;;48.10;9.63;;;15.30;95.90;;;15.60;59.79;94292.31;5080583;28;20456;-60
2023/10/25 05:07:39;;;;;;;31.47;7.50;;;15.30;95.70;;;15.60;59.71;94294.16;5077389;28;20998;-61
2023/10/25 05:10:08;;;;;;;24.37;7.97;;;15.30;95.50;;;15.62;59.86;94296.63;5087358;28;20954;-59
2023/10/25 05:12:41;;;;;;;29.70;7.20;;;15.40;95.60;;;15.68;59.97;94299.34;5082395;28;20994;-61
2023/10/25 05:15:10;;;;;;;23.97;7.37;;;15.40;95.90;;;15.75;59.58;94310.88;5080859;28;20470;-60
2023/10/25 05:17:38;;;;;;;28.27;8.40;;;15.40;95.80;;;15.82;59.80;94318.09;5083263;28;20488;-60
2023/10/25 05:20:08;;;;;;;41.03;8.17;;;15.50;95.70;;;15.88;59.89;94306.72;5085428;28;20458;-61
2023/10/25 05:22:38;;;;;;;22.03;7.80;;;15.60;95.70;;;15.90;59.15;94318.00;5084424;28;20469;-62
2023/10/25 05:25:10;;;;;;;34.60;8.03;;;15.60;95.30;;;15.90;59.40;94299.44;5089018;28;20451;-60
2023/10/25 05:27:38;;;;;;;24.03;7.17;;;15.60;95.40;;;15.89;59.20;94316.34;5088167;28;20466;-59
2023/10/25 05:30:09;;;;;;;31.90;9.10;;;15.60;95.30;;;15.90;59.24;94288.81;5086006;28;20512;-61
2023/10/25 05:32:39;;;;;;;29.70;8.27;;;15.60;95.20;;;15.91;59.31;94295.75;5081949;28;20539;-60
2023/10/25 05:35:09;;;;;;;23.33;7.57;;;15.60;95.30;;;15.94;59.15;94306.81;5086709;28;21090;-60
2023/10/25 05:37:39;;;;;;;21.67;7.40;;;15.70;95.40;;;15.97;59.98;94295.00;5086432;28;20481;-60
2023/10/25 05:40:09;;;;;;;31.13;9.67;;;15.70;95.70;;;15.98;59.17;94296.66;5086743;28;20520;-60
2023/10/25 05:42:47;;;;;;;20.23;7.90;;;15.70;95.30;;;15.99;59.23;94305.44;5087338;28;20482;-59
2023/10/25 05:45:15;;;;;;;33.63;8.30;;;15.70;95.20;;;15.99;59.11;94306.28;5085978;28;20435;-68
2023/10/25 05:47:43;;;;;;;30.80;8.40;;;15.70;95.20;;;16.00;59.33;94302.59;5088028;28;20469;-61
2023/10/25 05:50:13;;;;;;;50.10;9.67;;;15.70;95.10;;;16.00;59.01;94307.88;5085841;28;20450;-61
2023/10/25 05:52:44;;;;;;;30.07;9.77;;;15.70;95.10;;;16.02;59.10;94305.91;5089241;28;20473;-60
2023/10/25 05:55:15;;;;;;;36.80;8.37;;;15.70;95.10;;;16.03;58.86;94323.44;5085260;28;20477;-60
2023/10/25 05:57:45;;;;;;;30.30;8.40;;;15.70;95.10;;;16.03;59.05;94328.75;5085590;28;20853;-62
2023/10/25 06:00:14;;;;;;;23.93;8.00;;;15.70;95.10;;;16.05;59.09;94331.22;5085473;28;20458;-60
2023/10/25 06:02:43;;;;;;;26.90;8.37;;;15.70;95.10;;;16.05;58.99;94332.06;5086273;28;20463;-62
2023/10/25 06:05:14;;;;;;;35.37;10.10;;;15.80;95.10;;;16.06;59.04;94333.66;5087719;28;20449;-62
2023/10/25 06:07:44;;;;;;;34.50;11.23;;;15.80;95.00;;;16.04;58.90;94314.47;5084494;28;20502;-62
2023/10/25 06:10:14;;;;;;;34.40;10.63;;;15.80;94.90;;;16.02;58.80;94305.91;5087246;28;20434;-61
2023/10/25 06:12:43;;;;;;;37.10;10.10;;;15.80;94.80;;;16.00;59.32;94318.50;5084790;28;20462;-60
2023/10/25 06:15:11;;;;;;;30.63;8.97;;;15.70;95.20;;;15.99;59.17;94321.34;5084380;28;20552;-61
2023/10/25 06:33:49;;;;;;;34.43;11.40;;;15.80;95.20;;;16.27;59.44;94319.63;5139903;27;20907;-59
2023/10/25 06:36:18;;;;;;;36.03;10.20;;;16.00;95.60;;;16.31;59.12;94335.97;5122484;28;20982;-59
2023/10/25 06:38:46;;;;;;;36.33;10.40;;;16.00;95.20;;;16.38;59.23;94334.22;5095697;28;20442;-61
2023/10/25 06:41:17;;;;;;;32.97;11.57;;;16.10;95.20;;;16.44;59.11;94338.78;5095817;28;20454;-59
2023/10/25 06:43:45;;;;;;;56.50;11.50;;;16.10;95.10;;;16.51;58.92;94340.69;5095789;28;20453;-60
2023/10/25 06:46:13;;;;;;;55.27;11.70;;;16.20;94.90;;;16.55;58.54;94321.53;5101432;28;20441;-60
2023/10/25 06:48:41;;;;;;;32.63;10.50;;;16.30;95.00;;;16.65;58.65;94326.50;5095387;28;20478;-60
2023/10/25 06:51:10;;;;;;;33.13;11.47;;;16.30;94.80;;;16.74;58.26;94335.16;5097674;28;20537;-59
2023/10/25 06:53:38;;;;;;;41.27;10.83;;;16.40;94.90;;;16.84;58.65;94343.66;5095266;28;20473;-58
2023/10/25 06:56:07;;;;;;;29.93;11.20;;;16.50;94.90;;;16.96;58.52;94343.97;5097311;28;20465;-60
2023/10/25 06:58:35;;;;;;;30.20;12.73;;;16.60;95.00;;;17.09;58.45;94341.41;5094873;28;20477;-60
2023/10/25 07:01:03;;;;;;;23.60;11.90;;;16.70;94.80;;;17.19;57.81;94344.53;5097205;28;20449;-60
2023/10/25 07:03:34;;;;;;;42.07;13.60;;;16.80;94.50;;;17.30;57.70;94345.84;5094154;28;20561;-60
2023/10/25 07:06:02;;;;;;;50.30;13.97;;;16.90;94.40;;;17.40;57.82;94334.88;5096486;28;20446;-59
2023/10/25 07:08:32;;;;;;;40.07;11.33;;;17.00;94.30;;;17.48;57.16;94342.69;5095355;28;20470;-60
2023/10/25 07:10:59;;;;;;;34.53;10.33;;;17.10;94.10;;;17.55;57.42;94348.88;5096908;28;20960;-62
2023/10/25 07:13:27;;;;;;;38.57;11.33;;;17.20;93.90;;;17.63;57.00;94345.25;5094760;28;20470;-59
2023/10/25 07:15:54;;;;;;;24.43;9.77;;;17.30;93.80;;;17.70;56.76;94340.75;5096683;28;20843;-61
2023/10/25 07:18:22;;;;;;;83.73;9.20;;;17.30;93.40;;;17.76;54.72;94349.81;5094835;28;20466;-59
2023/10/25 07:20:50;;;;;;;58.23;7.80;;;17.40;92.00;;;17.94;55.74;94348.47;5096358;28;20913;-60
2023/10/25 07:23:17;;;;;;;41.33;6.20;;;17.50;92.00;;;18.20;54.05;94356.59;5094162;28;20551;-61
2023/10/25 07:25:46;;;;;;;41.37;6.57;;;17.80;91.20;;;18.51;52.73;94357.88;5097251;28;20441;-61
2023/10/25 07:28:14;;;;;;;41.63;5.77;;;18.00;90.00;;;18.80;52.91;94356.69;5094345;28;20554;-60
2023/10/25 07:30:41;;;;;;;45.73;6.20;;;18.30;89.00;;;19.09;51.37;94361.88;5097130;28;21141;-60
2023/10/25 07:33:10;;;;;;;54.20;7.03;;;18.60;86.20;;;19.39;51.12;94364.13;5088714;28;20467;-61
2023/10/25 07:35:38;;;;;;;57.70;6.20;;;18.90;85.70;;;19.67;50.06;94366.53;5083711;28;20484;-61
2023/10/25 07:38:06;;;;;;;51.30;7.17;;;19.20;83.20;;;19.93;49.98;94355.00;5081647;28;20487;-59
2023/10/25 07:40:34;;;;;;;56.23;6.30;;;19.40;83.80;;;20.16;49.19;94348.34;5084975;28;20541;-59
2023/10/25 07:43:04;;;;;;;44.37;6.53;;;19.70;80.80;;;20.37;47.26;94345.38;5081505;28;20500;-58
2023/10/25 07:45:32;;;;;;;57.57;5.77;;;19.90;77.90;;;20.57;47.44;94349.78;5081514;28;20526;-60
2023/10/25 07:48:00;;;;;;;28.33;5.57;;;20.10;77.30;;;20.76;47.96;94358.75;5084328;28;20466;-60
2023/10/25 07:50:28;;;;;;;34.97;5.17;;;20.30;76.90;;;20.94;46.27;94366.00;5080635;28;20447;-61
2023/10/25 07:52:55;;;;;;;56.90;6.53;;;20.50;74.90;;;21.07;46.04;94360.59;5083639;28;21183;-61
2023/10/25 07:55:22;;;;;;;43.10;6.37;;;20.60;73.90;;;21.24;47.16;94373.41;5083487;28;20539;-62
2023/10/25 07:57:50;;;;;;;28.70;6.20;;;20.80;75.50;;;21.38;47.25;94366.06;5079676;28;20478;-62
2023/10/25 08:00:19;;;;;;;35.43;6.20;;;20.90;74.90;;;21.51;46.04;94360.66;5083304;28;20450;-64
2023/10/25 08:02:46;;;;;;;55.10;6.37;;;21.10;74.40;;;21.63;46.48;94344.69;5078774;28;20487;-61
2023/10/25 08:05:14;;;;;;;57.20;6.90;;;21.20;73.30;;;21.73;46.37;94342.31;5083287;28;20460;-62
2023/10/25 08:07:42;;;;;;;41.03;6.70;;;21.30;73.90;;;21.85;45.96;94355.78;5080007;28;20471;-63
2023/10/25 08:10:10;;;;;;;51.40;9.13;;;21.40;73.40;;;21.94;46.49;94359.00;5083586;28;20827;-61
2023/10/25 08:12:37;;;;;;;34.03;6.00;;;21.50;73.30;;;22.02;46.44;94362.19;5079141;28;20505;-60
2023/10/25 08:15:07;;;;;;;38.57;5.57;;;21.60;73.30;;;22.09;46.69;94366.63;5079745;28;20450;-61
2023/10/25 08:17:36;;;;;;;42.80;6.83;;;21.70;72.90;;;22.16;45.82;94370.88;5083215;28;20474;-61
2023/10/25 08:20:04;;;;;;;46.63;9.43;;;21.70;72.00;;;22.21;46.02;94370.19;5078916;28;20972;-64
2023/10/25 08:22:33;;;;;;;47.67;9.63;;;21.80;72.60;;;22.22;46.36;94379.88;5082632;28;20505;-62
2023/10/25 08:25:01;;;;;;;66.70;11.00;;;21.80;72.60;;;22.10;46.31;94369.09;5079274;28;20996;-63
2023/10/25 08:27:28;;;;;;;59.03;11.13;;;21.80;72.80;;;21.98;46.49;94376.22;5079232;28;20482;-62
2023/10/25 08:29:56;;;;;;;41.30;9.70;;;21.60;72.40;;;21.81;46.22;94379.50;5082645;28;20446;-63
2023/10/25 08:32:23;;;;;;;43.93;8.60;;;21.50;72.50;;;21.68;46.59;94376.97;5078131;28;20479;-63
2023/10/25 08:34:52;;;;;;;40.13;9.40;;;21.30;72.60;;;21.61;46.55;94392.25;5081434;28;20899;-63
2023/10/25 08:37:19;;;;;;;46.53;10.80;;;21.20;72.90;;;21.55;46.78;94393.13;5079525;28;20462;-68
2023/10/25 08:39:47;;;;;;;39.53;8.40;;;21.10;73.00;;;21.48;47.38;94388.63;5081852;28;20542;-63
2023/10/25 08:42:14;;;;;;;53.53;9.47;;;21.10;73.20;;;21.46;47.24;94385.34;5079969;28;20508;-64
2023/10/25 08:44:42;;;;;;;50.73;10.93;;;21.10;73.60;;;21.47;47.27;94388.84;5080936;28;20450;-64
2023/10/25 08:47:11;;;;;;;41.40;10.37;;;21.10;73.90;;;21.48;47.42;94388.63;5084175;28;20489;-63
2023/10/25 08:49:39;;;;;;;36.43;9.40;;;21.10;74.30;;;21.53;47.23;94389.88;5081330;28;20455;-62
2023/10/25 08:52:07;;;;;;;38.57;10.17;;;21.10;73.60;;;21.54;47.22;94386.16;5079554;28;20477;-62
2023/10/25 08:54:36;;;;;;;70.23;12.17;;;21.10;73.60;;;21.53;47.34;94389.88;5080944;28;20450;-61
2023/10/25 08:57:04;;;;;;;55.30;10.73;;;21.10;73.80;;;21.54;47.15;94386.16;5078086;28;20545;-60
2023/10/25 08:59:32;;;;;;;46.73;11.83;;;21.10;73.70;;;21.56;47.23;94384.88;5082075;28;20462;-61
2023/10/25 09:01:59;;;;;;;54.47;10.83;;;21.10;73.80;;;21.61;47.43;94389.56;5079635;28;20601;-60
2023/10/25 09:04:26;;;;;;;55.87;10.67;;;21.20;74.50;;;21.69;46.89;94393.81;5080462;28;20454;-59
2023/10/25 09:06:54;;;;;;;48.10;13.13;;;21.30;73.90;;;21.72;47.06;94386.19;5079429;28;20526;-60
2023/10/25 09:09:23;;;;;;;38.93;11.37;;;21.30;73.70;;;21.77;46.57;94386.34;5080096;28;21008;-62
2023/10/25 09:11:50;;;;;;;33.23;10.77;;;21.40;73.30;;;21.92;47.22;94390.50;5079663;28;20473;-62
2023/10/25 09:14:17;;;;;;;43.73;11.23;;;21.50;73.70;;;22.18;46.72;94387.56;5082295;28;20479;-61
2023/10/25 09:16:45;;;;;;;57.33;11.40;;;21.70;74.10;;;22.63;46.84;94388.25;5079398;28;20567;-62
2023/10/25 09:19:12;;;;;;;50.90;8.53;;;22.10;73.50;;;23.09;45.33;94389.50;5080143;28;20462;-61
2023/10/25 09:21:39;;;;;;;49.47;7.57;;;22.50;71.60;;;23.62;44.92;94385.97;5078979;28;20876;-60
2023/10/25 09:24:09;;;;;;;75.10;8.20;;;23.00;70.20;;;24.26;42.25;94384.41;5080347;28;20489;-63
2023/10/25 09:26:39;;;;;;;50.03;6.33;;;23.50;67.70;;;24.79;41.60;94371.78;5078806;28;20516;-62
2023/10/25 09:29:09;;;;;;;37.13;6.80;;;24.00;66.10;;;25.24;41.30;94379.81;5079859;28;20465;-62
2023/10/25 09:31:37;;;;;;;58.27;7.00;;;24.50;65.30;;;25.74;40.58;94372.03;5079480;28;20531;-63
2023/10/25 09:34:09;;;;;;;33.83;6.80;;;25.00;63.50;;;26.32;39.75;94372.59;5080315;28;20474;-62
2023/10/25 09:36:37;;;;;;;39.70;7.20;;;25.60;62.50;;;26.95;38.04;94364.13;5081236;28;20434;-64
2023/10/25 09:39:04;;;;;;;47.40;7.80;;;26.20;59.40;;;27.43;37.34;94350.81;5079857;28;20547;-60
2023/10/25 09:41:35;;;;;;;47.73;7.27;;;26.70;58.30;;;27.93;36.57;94348.72;5080468;28;20461;-70
2023/10/25 09:44:06;;;;;;;37.30;7.77;;;27.10;57.50;;;28.44;37.04;94346.28;5081339;28;20516;-70
2023/10/25 09:46:34;;;;;;;49.63;6.47;;;27.60;57.00;;;28.93;35.72;94345.09;5077773;28;20447;-61
2023/10/25 09:49:04;;;;;;;44.67;8.70;;;28.10;55.80;;;29.34;33.07;94342.44;5078861;28;20465;-60
2023/10/25 09:51:39;;;;;;;44.53;6.57;;;28.50;53.20;;;29.60;33.43;94337.84;5078267;28;20550;-71
2023/10/25 09:54:11;;;;;;;53.70;7.00;;;28.80;53.30;;;29.79;33.04;94334.56;5083183;28;20481;-72
2023/10/25 09:56:38;;;;;;;48.90;7.30;;;29.10;51.70;;;30.08;33.72;94339.41;5085932;28;20525;-71
2023/10/25 09:59:08;;;;;;;38.83;8.47;;;29.40;52.30;;;30.38;32.15;94328.47;5082297;28;20977;-74
2023/10/25 10:01:35;;;;;;;43.77;7.20;;;29.60;51.10;;;30.72;33.12;94324.25;5076963;28;20450;-60
2023/10/25 10:04:10;;;;;;;59.93;8.87;;;30.00;50.90;;;30.91;31.07;94332.56;5081568;28;20604;-71
2023/10/25 10:06:41;;;;;;;63.07;8.40;;;30.20;49.40;;;30.89;31.64;94323.88;5081970;28;20562;-70
2023/10/25 10:09:16;;;;;;;38.33;7.50;;;30.20;49.30;;;30.72;32.02;94314.22;5079052;28;20445;-62
2023/10/25 10:11:48;;;;;;;55.13;8.67;;;30.10;49.00;;;30.50;32.03;94322.72;5079649;28;20466;-69
2023/10/25 10:14:33;;;;;;;64.27;7.50;;;29.90;49.30;;;30.20;32.10;94304.66;5079100;28;20468;-74
2023/10/25 10:17:05;;;;;;;51.77;6.77;;;29.70;48.50;;;30.00;31.53;94311.75;5078550;28;20462;-71
2023/10/25 10:19:32;;;;;;;40.87;6.83;;;29.50;49.20;;;29.72;33.59;94301.53;5079941;28;20446;-71
2023/10/25 10:22:10;;;;;;;61.97;8.83;;;29.30;50.10;;;29.37;32.57;94303.19;5078485;28;20527;-70
2023/10/25 10:24:41;;;;;;;59.77;8.00;;;28.90;48.70;;;29.07;33.09;94304.78;5078673;28;20553;-70
2023/10/25 10:27:09;;;;;;;58.20;7.93;;;28.60;49.70;;;28.71;32.90;94296.63;5080451;28;20985;-77
2023/10/25 10:29:42;;;;;;;64.33;9.10;;;28.30;49.20;;;28.33;33.24;94291.31;5082204;28;20462;-79
2023/10/25 10:32:10;;;;;;;64.53;9.80;;;27.90;50.20;;;28.05;33.88;94268.25;5082307;28;20815;-61
2023/10/25 10:34:43;;;;;;;58.43;8.13;;;27.70;50.90;;;28.04;33.19;94277.41;5082942;28;20490;-74